sensor_id;sensor_type;location;lat;lon;timestamp;temperature;humidity
16273;DHT22;8244;50.044;9.006;2024-03-23T00:57:18;7.70;99.90
16273;DHT22;8244;50.044;9.006;2024-03-23T01:02:20;7.70;99.90
16273;DHT22;8244;50.044;9.006;2024-03-23T01:07:22;7.60;99.90
16273;DHT22;8244;50.044;9.006;2024-03-23T01:12:25;7.70;99.90
16273;DHT22;8244;50.044;9.006;2024-03-23T01:17:27;7.80;99.90
16273;DHT22;8244;50.044;9.006;2024-03-23T01:22:28;7.80;99.90
16273;DHT22;8244;50.044;9.006;2024-03-23T01:27:31;7.90;99.90
16273;DHT22;8244;50.044;9.006;2024-03-23T01:32:34;8.00;99.90
16273;DHT22;8244;50.044;9.006;2024-03-23T01:37:36;8.00;99.90
16273;DHT22;8244;50.044;9.006;2024-03-23T01:42:39;8.10;99.90
16273;DHT22;8244;50.044;9.006;2024-03-23T01:47:41;8.10;99.90
16273;DHT22;8244;50.044;9.006;2024-03-23T01:52:43;8.20;99.90
16273;DHT22;8244;50.044;9.006;2024-03-23T01:57:47;8.20;99.90
16273;DHT22;8244;50.044;9.006;2024-03-23T02:02:49;8.20;99.90
16273;DHT22;8244;50.044;9.006;2024-03-23T02:07:51;8.30;99.90
16273;DHT22;8244;50.044;9.006;2024-03-23T02:12:54;8.30;99.90
16273;DHT22;8244;50.044;9.006;2024-03-23T02:17:56;8.30;99.90
16273;DHT22;8244;50.044;9.006;2024-03-23T02:22:59;8.40;99.90
16273;DHT22;8244;50.044;9.006;2024-03-23T02:28:01;8.30;99.90
16273;DHT22;8244;50.044;9.006;2024-03-23T02:33:03;8.30;99.90
16273;DHT22;8244;50.044;9.006;2024-03-23T02:38:06;8.30;99.90
16273;DHT22;8244;50.044;9.006;2024-03-23T02:43:08;8.40;99.90
16273;DHT22;8244;50.044;9.006;2024-03-23T02:48:10;8.40;99.90
16273;DHT22;8244;50.044;9.006;2024-03-23T02:53:13;8.40;99.90
16273;DHT22;8244;50.044;9.006;2024-03-23T02:58:14;8.40;99.90
16273;DHT22;8244;50.044;9.006;2024-03-23T03:03:16;8.40;99.90
16273;DHT22;8244;50.044;9.006;2024-03-23T03:08:19;8.40;99.90
16273;DHT22;8244;50.044;9.006;2024-03-23T03:13:21;8.40;99.90
16273;DHT22;8244;50.044;9.006;2024-03-23T03:18:23;8.40;99.90
16273;DHT22;8244;50.044;9.006;2024-03-23T03:23:27;8.40;99.90
16273;DHT22;8244;50.044;9.006;2024-03-23T03:28:29;8.40;99.90
16273;DHT22;8244;50.044;9.006;2024-03-23T03:33:31;8.50;99.90
16273;DHT22;8244;50.044;9.006;2024-03-23T03:38:34;8.50;99.90
16273;DHT22;8244;50.044;9.006;2024-03-23T03:43:36;8.50;99.90
16273;DHT22;8244;50.044;9.006;2024-03-23T03:48:38;8.50;99.90
16273;DHT22;8244;50.044;9.006;2024-03-23T03:53:41;8.50;99.90
16273;DHT22;8244;50.044;9.006;2024-03-23T03:58:43;8.50;99.90
16273;DHT22;8244;50.044;9.006;2024-03-23T04:03:45;8.50;99.90
16273;DHT22;8244;50.044;9.006;2024-03-23T04:08:48;8.60;99.90
16273;DHT22;8244;50.044;9.006;2024-03-23T04:13:50;8.60;99.90
16273;DHT22;8244;50.044;9.006;2024-03-23T04:18:52;8.60;99.90
16273;DHT22;8244;50.044;9.006;2024-03-23T04:23:55;8.60;99.90
16273;DHT22;8244;50.044;9.006;2024-03-23T04:28:57;8.60;99.90
16273;DHT22;8244;50.044;9.006;2024-03-23T04:33:59;8.60;99.90
16273;DHT22;8244;50.044;9.006;2024-03-23T04:39:02;8.60;99.90
16273;DHT22;8244;50.044;9.006;2024-03-23T04:44:04;8.70;99.90
16273;DHT22;8244;50.044;9.006;2024-03-23T04:49:06;9.00;99.90
16273;DHT22;8244;50.044;9.006;2024-03-23T04:54:09;9.20;99.90
16273;DHT22;8244;50.044;9.006;2024-03-23T04:59:11;9.20;99.90
16273;DHT22;8244;50.044;9.006;2024-03-23T05:04:13;9.10;99.90
16273;DHT22;8244;50.044;9.006;2024-03-23T05:09:16;8.90;99.90
16273;DHT22;8244;50.044;9.006;2024-03-23T05:14:18;8.90;99.90
16273;DHT22;8244;50.044;9.006;2024-03-23T05:19:20;8.80;99.90
16273;DHT22;8244;50.044;9.006;2024-03-23T05:24:24;8.70;99.90
16273;DHT22;8244;50.044;9.006;2024-03-23T05:29:25;8.70;99.90
16273;DHT22;8244;50.044;9.006;2024-03-23T05:34:27;8.60;99.90
16273;DHT22;8244;50.044;9.006;2024-03-23T05:39:31;8.50;99.90
16273;DHT22;8244;50.044;9.006;2024-03-23T05:44:33;8.40;99.90
16273;DHT22;8244;50.044;9.006;2024-03-23T05:49:35;8.30;99.90
16273;DHT22;8244;50.044;9.006;2024-03-23T05:54:38;8.30;99.90
16273;DHT22;8244;50.044;9.006;2024-03-23T05:59:40;8.20;99.90
16273;DHT22;8244;50.044;9.006;2024-03-23T06:04:41;8.10;99.90
16273;DHT22;8244;50.044;9.006;2024-03-23T06:09:45;8.10;99.90
16273;DHT22;8244;50.044;9.006;2024-03-23T06:14:46;8.10;99.90
16273;DHT22;8244;50.044;9.006;2024-03-23T06:19:49;8.00;99.90
16273;DHT22;8244;50.044;9.006;2024-03-23T06:24:52;8.00;99.90
16273;DHT22;8244;50.044;9.006;2024-03-23T06:29:54;7.90;99.90
16273;DHT22;8244;50.044;9.006;2024-03-23T06:34:56;7.90;99.90
16273;DHT22;8244;50.044;9.006;2024-03-23T06:39:59;7.90;99.90
16273;DHT22;8244;50.044;9.006;2024-03-23T06:45:01;7.90;99.90
16273;DHT22;8244;50.044;9.006;2024-03-23T06:50:05;7.90;99.90
16273;DHT22;8244;50.044;9.006;2024-03-23T06:55:08;7.90;99.90
16273;DHT22;8244;50.044;9.006;2024-03-23T07:00:12;7.90;99.90
16273;DHT22;8244;50.044;9.006;2024-03-23T07:05:16;7.80;99.90
16273;DHT22;8244;50.044;9.006;2024-03-23T07:10:19;7.80;99.90
16273;DHT22;8244;50.044;9.006;2024-03-23T07:15:20;7.90;99.90
16273;DHT22;8244;50.044;9.006;2024-03-23T07:20:22;7.80;99.90
16273;DHT22;8244;50.044;9.006;2024-03-23T07:25:26;7.80;99.90
16273;DHT22;8244;50.044;9.006;2024-03-23T07:30:29;7.90;99.90
16273;DHT22;8244;50.044;9.006;2024-03-23T07:35:31;8.00;99.90
16273;DHT22;8244;50.044;9.006;2024-03-23T07:40:34;8.10;99.90
16273;DHT22;8244;50.044;9.006;2024-03-23T07:45:36;8.10;99.90
16273;DHT22;8244;50.044;9.006;2024-03-23T07:50:38;8.10;99.90
16273;DHT22;8244;50.044;9.006;2024-03-23T07:55:41;8.10;99.90
16273;DHT22;8244;50.044;9.006;2024-03-23T08:00:44;8.00;99.90
16273;DHT22;8244;50.044;9.006;2024-03-23T08:05:46;8.10;99.90
16273;DHT22;8244;50.044;9.006;2024-03-23T08:10:50;8.30;99.90
16273;DHT22;8244;50.044;9.006;2024-03-23T08:15:52;8.70;99.90
16273;DHT22;8244;50.044;9.006;2024-03-23T08:20:58;9.00;99.90
16273;DHT22;8244;50.044;9.006;2024-03-23T08:26:03;9.40;99.90
16273;DHT22;8244;50.044;9.006;2024-03-23T08:31:06;10.20;99.90
16273;DHT22;8244;50.044;9.006;2024-03-23T08:36:09;10.80;99.90
16273;DHT22;8244;50.044;9.006;2024-03-23T08:41:14;10.90;99.90
16273;DHT22;8244;50.044;9.006;2024-03-23T08:46:16;10.80;99.90
16273;DHT22;8244;50.044;9.006;2024-03-23T08:51:18;10.60;99.90
16273;DHT22;8244;50.044;9.006;2024-03-23T08:56:21;10.50;99.90
16273;DHT22;8244;50.044;9.006;2024-03-23T09:01:23;10.40;99.90
16273;DHT22;8244;50.044;9.006;2024-03-23T09:06:24;10.60;99.90
16273;DHT22;8244;50.044;9.006;2024-03-23T09:11:28;11.10;99.90
16273;DHT22;8244;50.044;9.006;2024-03-23T09:16:32;11.90;99.90
16273;DHT22;8244;50.044;9.006;2024-03-23T09:21:34;12.40;99.90
16273;DHT22;8244;50.044;9.006;2024-03-23T09:26:37;13.00;99.90
16273;DHT22;8244;50.044;9.006;2024-03-23T09:31:39;13.10;99.90
16273;DHT22;8244;50.044;9.006;2024-03-23T09:36:41;13.70;99.90
16273;DHT22;8244;50.044;9.006;2024-03-23T09:41:45;13.20;99.90
16273;DHT22;8244;50.044;9.006;2024-03-23T09:46:47;13.20;99.90
16273;DHT22;8244;50.044;9.006;2024-03-23T09:51:48;13.30;99.90
16273;DHT22;8244;50.044;9.006;2024-03-23T09:56:53;13.20;99.90
16273;DHT22;8244;50.044;9.006;2024-03-23T10:01:55;13.10;99.80
16273;DHT22;8244;50.044;9.006;2024-03-23T10:07:10;13.50;99.90
16273;DHT22;8244;50.044;9.006;2024-03-23T10:12:17;14.10;99.60
16273;DHT22;8244;50.044;9.006;2024-03-23T10:17:21;14.00;99.70
16273;DHT22;8244;50.044;9.006;2024-03-23T10:22:24;13.70;97.80
16273;DHT22;8244;50.044;9.006;2024-03-23T10:27:27;13.60;98.30
16273;DHT22;8244;50.044;9.006;2024-03-23T10:32:29;13.30;97.60
16273;DHT22;8244;50.044;9.006;2024-03-23T10:37:31;13.20;98.90
16273;DHT22;8244;50.044;9.006;2024-03-23T10:42:34;12.40;99.90
16273;DHT22;8244;50.044;9.006;2024-03-23T10:47:37;12.30;99.90
16273;DHT22;8244;50.044;9.006;2024-03-23T10:52:42;12.30;99.90
16273;DHT22;8244;50.044;9.006;2024-03-23T10:57:51;12.50;99.90
16273;DHT22;8244;50.044;9.006;2024-03-23T11:02:54;12.40;99.70
16273;DHT22;8244;50.044;9.006;2024-03-23T11:07:56;12.10;98.90
16273;DHT22;8244;50.044;9.006;2024-03-23T11:13:22;11.70;96.10
16273;DHT22;8244;50.044;9.006;2024-03-23T11:18:25;11.70;98.50
16273;DHT22;8244;50.044;9.006;2024-03-23T11:23:28;12.40;99.40
16273;DHT22;8244;50.044;9.006;2024-03-23T11:28:31;12.90;97.20
16273;DHT22;8244;50.044;9.006;2024-03-23T11:33:33;12.10;99.90
16273;DHT22;8244;50.044;9.006;2024-03-23T11:38:37;10.60;99.90
16273;DHT22;8244;50.044;9.006;2024-03-23T11:43:40;10.20;99.90
16273;DHT22;8244;50.044;9.006;2024-03-23T11:48:49;9.50;99.90
16273;DHT22;8244;50.044;9.006;2024-03-23T11:53:51;9.10;99.90
16273;DHT22;8244;50.044;9.006;2024-03-23T11:58:55;9.20;99.90
16273;DHT22;8244;50.044;9.006;2024-03-23T12:03:57;9.30;99.90
16273;DHT22;8244;50.044;9.006;2024-03-23T12:09:05;9.20;99.90
16273;DHT22;8244;50.044;9.006;2024-03-23T12:14:09;9.20;99.90
16273;DHT22;8244;50.044;9.006;2024-03-23T12:19:11;9.10;99.90
16273;DHT22;8244;50.044;9.006;2024-03-23T12:24:12;9.70;99.90
16273;DHT22;8244;50.044;9.006;2024-03-23T12:29:16;10.40;99.90
16273;DHT22;8244;50.044;9.006;2024-03-23T12:34:18;11.10;99.90
16273;DHT22;8244;50.044;9.006;2024-03-23T12:39:21;11.70;99.90
16273;DHT22;8244;50.044;9.006;2024-03-23T12:44:24;11.80;99.90
16273;DHT22;8244;50.044;9.006;2024-03-23T12:49:26;12.10;99.70
16273;DHT22;8244;50.044;9.006;2024-03-23T12:54:27;12.20;97.90
16273;DHT22;8244;50.044;9.006;2024-03-23T12:59:32;12.40;96.60
16273;DHT22;8244;50.044;9.006;2024-03-23T13:04:36;12.70;97.30
16273;DHT22;8244;50.044;9.006;2024-03-23T13:09:38;12.60;95.40
16273;DHT22;8244;50.044;9.006;2024-03-23T13:14:41;12.70;95.60
16273;DHT22;8244;50.044;9.006;2024-03-23T13:19:42;12.90;96.40
16273;DHT22;8244;50.044;9.006;2024-03-23T13:24:44;13.10;96.60
16273;DHT22;8244;50.044;9.006;2024-03-23T13:29:48;13.30;95.80
16273;DHT22;8244;50.044;9.006;2024-03-23T13:34:51;13.10;94.40
16273;DHT22;8244;50.044;9.006;2024-03-23T13:39:53;12.60;94.20
16273;DHT22;8244;50.044;9.006;2024-03-23T13:44:56;12.20;96.50
16273;DHT22;8244;50.044;9.006;2024-03-23T13:49:57;10.40;99.90
16273;DHT22;8244;50.044;9.006;2024-03-23T13:55:00;8.40;99.90
16273;DHT22;8244;50.044;9.006;2024-03-23T14:00:06;7.50;99.90
16273;DHT22;8244;50.044;9.006;2024-03-23T14:05:08;7.40;99.90
16273;DHT22;8244;50.044;9.006;2024-03-23T14:10:11;7.60;99.90
16273;DHT22;8244;50.044;9.006;2024-03-23T14:15:17;8.20;99.90
16273;DHT22;8244;50.044;9.006;2024-03-23T14:20:19;8.90;99.90
16273;DHT22;8244;50.044;9.006;2024-03-23T14:25:21;9.50;99.90
16273;DHT22;8244;50.044;9.006;2024-03-23T14:30:29;10.00;99.90
16273;DHT22;8244;50.044;9.006;2024-03-23T14:35:32;10.20;99.90
16273;DHT22;8244;50.044;9.006;2024-03-23T14:40:34;10.00;99.90
16273;DHT22;8244;50.044;9.006;2024-03-23T14:45:37;10.20;99.90
16273;DHT22;8244;50.044;9.006;2024-03-23T14:50:39;10.40;99.90
16273;DHT22;8244;50.044;9.006;2024-03-23T14:55:41;10.40;99.90
16273;DHT22;8244;50.044;9.006;2024-03-23T15:00:49;10.20;99.90
16273;DHT22;8244;50.044;9.006;2024-03-23T15:05:53;10.20;99.90
16273;DHT22;8244;50.044;9.006;2024-03-23T15:10:59;10.20;99.90
16273;DHT22;8244;50.044;9.006;2024-03-23T15:16:02;10.10;99.90
16273;DHT22;8244;50.044;9.006;2024-03-23T15:21:05;10.10;99.90
16273;DHT22;8244;50.044;9.006;2024-03-23T15:26:09;10.20;99.90
16273;DHT22;8244;50.044;9.006;2024-03-23T15:31:12;10.40;99.90
16273;DHT22;8244;50.044;9.006;2024-03-23T15:36:14;10.50;99.90
16273;DHT22;8244;50.044;9.006;2024-03-23T15:41:16;10.60;99.90
16273;DHT22;8244;50.044;9.006;2024-03-23T15:46:19;10.70;99.90
16273;DHT22;8244;50.044;9.006;2024-03-23T15:51:22;10.80;99.90
16273;DHT22;8244;50.044;9.006;2024-03-23T15:56:24;10.80;99.90
16273;DHT22;8244;50.044;9.006;2024-03-23T16:01:27;10.60;99.90
16273;DHT22;8244;50.044;9.006;2024-03-23T16:06:29;10.60;99.90
16273;DHT22;8244;50.044;9.006;2024-03-23T16:11:31;10.50;99.90
16273;DHT22;8244;50.044;9.006;2024-03-23T16:16:34;10.40;99.90
16273;DHT22;8244;50.044;9.006;2024-03-23T16:21:36;10.10;99.90
16273;DHT22;8244;50.044;9.006;2024-03-23T16:26:37;9.80;99.90
16273;DHT22;8244;50.044;9.006;2024-03-23T16:31:40;8.50;99.90
16273;DHT22;8244;50.044;9.006;2024-03-23T16:36:42;8.30;99.90
16273;DHT22;8244;50.044;9.006;2024-03-23T16:41:44;8.50;99.90
16273;DHT22;8244;50.044;9.006;2024-03-23T16:46:47;8.70;99.90
16273;DHT22;8244;50.044;9.006;2024-03-23T16:51:49;8.80;99.90
16273;DHT22;8244;50.044;9.006;2024-03-23T16:56:52;8.80;99.90
16273;DHT22;8244;50.044;9.006;2024-03-23T17:01:55;8.70;99.90
16273;DHT22;8244;50.044;9.006;2024-03-23T17:06:57;8.70;99.90
16273;DHT22;8244;50.044;9.006;2024-03-23T17:11:59;8.40;99.90
16273;DHT22;8244;50.044;9.006;2024-03-23T17:17:02;8.30;99.90
16273;DHT22;8244;50.044;9.006;2024-03-23T17:22:04;8.10;99.90
16273;DHT22;8244;50.044;9.006;2024-03-23T17:27:06;7.90;99.90
16273;DHT22;8244;50.044;9.006;2024-03-23T17:32:09;7.80;99.90
16273;DHT22;8244;50.044;9.006;2024-03-23T17:37:11;7.70;99.90
16273;DHT22;8244;50.044;9.006;2024-03-23T17:42:13;7.60;99.90
16273;DHT22;8244;50.044;9.006;2024-03-23T17:47:16;7.40;99.90
16273;DHT22;8244;50.044;9.006;2024-03-23T17:52:18;7.10;99.90
16273;DHT22;8244;50.044;9.006;2024-03-23T17:57:20;7.00;99.90
16273;DHT22;8244;50.044;9.006;2024-03-23T18:02:23;6.80;99.90
16273;DHT22;8244;50.044;9.006;2024-03-23T18:07:25;6.70;99.90
16273;DHT22;8244;50.044;9.006;2024-03-23T18:12:27;6.60;99.90
16273;DHT22;8244;50.044;9.006;2024-03-23T18:17:30;6.60;99.90
16273;DHT22;8244;50.044;9.006;2024-03-23T18:22:32;6.60;99.90
16273;DHT22;8244;50.044;9.006;2024-03-23T18:27:34;6.50;99.90
16273;DHT22;8244;50.044;9.006;2024-03-23T18:32:37;6.50;99.90
16273;DHT22;8244;50.044;9.006;2024-03-23T18:37:39;6.40;99.90
16273;DHT22;8244;50.044;9.006;2024-03-23T18:42:41;6.20;99.90
16273;DHT22;8244;50.044;9.006;2024-03-23T18:47:45;6.10;99.90
16273;DHT22;8244;50.044;9.006;2024-03-23T18:52:47;6.10;99.90
16273;DHT22;8244;50.044;9.006;2024-03-23T18:57:49;6.00;99.90
16273;DHT22;8244;50.044;9.006;2024-03-23T19:02:52;6.00;99.90
16273;DHT22;8244;50.044;9.006;2024-03-23T19:07:54;6.10;99.90
16273;DHT22;8244;50.044;9.006;2024-03-23T19:12:56;6.00;99.90
16273;DHT22;8244;50.044;9.006;2024-03-23T19:18:00;6.00;99.90
16273;DHT22;8244;50.044;9.006;2024-03-23T19:23:02;6.00;99.90
16273;DHT22;8244;50.044;9.006;2024-03-23T19:28:04;6.00;99.90
16273;DHT22;8244;50.044;9.006;2024-03-23T19:33:07;6.10;99.90
16273;DHT22;8244;50.044;9.006;2024-03-23T19:38:09;6.00;99.90
16273;DHT22;8244;50.044;9.006;2024-03-23T19:43:11;6.00;99.90
16273;DHT22;8244;50.044;9.006;2024-03-23T19:48:14;5.90;99.90
16273;DHT22;8244;50.044;9.006;2024-03-23T19:53:16;5.80;99.90
16273;DHT22;8244;50.044;9.006;2024-03-23T19:58:18;5.80;99.90
16273;DHT22;8244;50.044;9.006;2024-03-23T20:03:21;5.80;99.90
16273;DHT22;8244;50.044;9.006;2024-03-23T20:08:23;5.80;99.90
16273;DHT22;8244;50.044;9.006;2024-03-23T20:13:25;5.70;99.90
16273;DHT22;8244;50.044;9.006;2024-03-23T20:18:28;5.70;99.90
16273;DHT22;8244;50.044;9.006;2024-03-23T20:23:30;5.70;99.90
16273;DHT22;8244;50.044;9.006;2024-03-23T20:28:32;5.60;99.90
16273;DHT22;8244;50.044;9.006;2024-03-23T20:33:35;5.60;99.90
16273;DHT22;8244;50.044;9.006;2024-03-23T20:38:37;5.50;99.90
16273;DHT22;8244;50.044;9.006;2024-03-23T20:43:39;5.50;99.90
16273;DHT22;8244;50.044;9.006;2024-03-23T20:48:47;5.40;99.90
16273;DHT22;8244;50.044;9.006;2024-03-23T20:53:50;5.30;99.90
16273;DHT22;8244;50.044;9.006;2024-03-23T20:58:52;5.30;99.90
16273;DHT22;8244;50.044;9.006;2024-03-23T21:03:55;5.30;99.90
16273;DHT22;8244;50.044;9.006;2024-03-23T21:08:57;5.20;99.90
16273;DHT22;8244;50.044;9.006;2024-03-23T21:13:58;5.10;99.90
16273;DHT22;8244;50.044;9.006;2024-03-23T21:19:02;5.00;99.90
16273;DHT22;8244;50.044;9.006;2024-03-23T21:24:04;4.90;99.90
16273;DHT22;8244;50.044;9.006;2024-03-23T21:29:06;4.80;99.90
16273;DHT22;8244;50.044;9.006;2024-03-23T21:34:09;4.80;99.90
16273;DHT22;8244;50.044;9.006;2024-03-23T21:39:12;4.70;99.90
16273;DHT22;8244;50.044;9.006;2024-03-23T21:44:14;4.60;99.90
16273;DHT22;8244;50.044;9.006;2024-03-23T21:49:17;4.70;99.90
16273;DHT22;8244;50.044;9.006;2024-03-23T21:54:19;4.70;99.90
16273;DHT22;8244;50.044;9.006;2024-03-23T21:59:22;4.70;99.90
16273;DHT22;8244;50.044;9.006;2024-03-23T22:04:25;4.70;99.90
16273;DHT22;8244;50.044;9.006;2024-03-23T22:09:27;4.60;99.90
16273;DHT22;8244;50.044;9.006;2024-03-23T22:14:30;4.60;99.90
16273;DHT22;8244;50.044;9.006;2024-03-23T22:19:34;4.60;99.90
16273;DHT22;8244;50.044;9.006;2024-03-23T22:24:35;4.60;99.90
16273;DHT22;8244;50.044;9.006;2024-03-23T22:29:37;4.60;99.90
16273;DHT22;8244;50.044;9.006;2024-03-23T22:34:40;4.60;99.90
16273;DHT22;8244;50.044;9.006;2024-03-23T22:39:42;4.70;99.90
16273;DHT22;8244;50.044;9.006;2024-03-23T22:44:44;4.70;99.90
16273;DHT22;8244;50.044;9.006;2024-03-23T22:49:47;4.70;99.90
16273;DHT22;8244;50.044;9.006;2024-03-23T22:54:49;4.80;99.90
16273;DHT22;8244;50.044;9.006;2024-03-23T22:59:51;4.80;99.90
16273;DHT22;8244;50.044;9.006;2024-03-23T23:04:55;4.90;99.90
16273;DHT22;8244;50.044;9.006;2024-03-23T23:09:56;4.90;99.90
16273;DHT22;8244;50.044;9.006;2024-03-23T23:14:58;4.90;99.90
16273;DHT22;8244;50.044;9.006;2024-03-23T23:20:01;4.80;99.90
16273;DHT22;8244;50.044;9.006;2024-03-23T23:25:04;4.90;99.90
16273;DHT22;8244;50.044;9.006;2024-03-23T23:30:07;4.80;99.90
16273;DHT22;8244;50.044;9.006;2024-03-23T23:35:12;4.80;99.90
16273;DHT22;8244;50.044;9.006;2024-03-23T23:40:14;4.80;99.90
16273;DHT22;8244;50.044;9.006;2024-03-23T23:45:16;4.80;99.90
16273;DHT22;8244;50.044;9.006;2024-03-23T23:50:19;4.80;99.90
16273;DHT22;8244;50.044;9.006;2024-03-23T23:55:21;4.90;99.90
